sensor_id;sensor_type;location;lat;lon;timestamp;P1;durP1;ratioP1;P2;durP2;ratioP2
4057;SDS011;2044;48.692;9.020;2023-08-21T00:01:28;11.23;;;8.07;;
4057;SDS011;2044;48.692;9.020;2023-08-21T00:03:55;9.57;;;8.20;;
4057;SDS011;2044;48.692;9.020;2023-08-21T00:06:22;10.10;;;8.20;;
4057;SDS011;2044;48.692;9.020;2023-08-21T00:08:48;10.70;;;8.20;;
4057;SDS011;2044;48.692;9.020;2023-08-21T00:11:15;9.73;;;7.57;;
4057;SDS011;2044;48.692;9.020;2023-08-21T00:13:43;12.60;;;7.80;;
4057;SDS011;2044;48.692;9.020;2023-08-21T00:16:12;9.67;;;7.50;;
4057;SDS011;2044;48.692;9.020;2023-08-21T00:18:39;8.33;;;7.50;;
4057;SDS011;2044;48.692;9.020;2023-08-21T00:21:06;8.67;;;7.77;;
4057;SDS011;2044;48.692;9.020;2023-08-21T00:23:33;9.00;;;8.07;;
4057;SDS011;2044;48.692;9.020;2023-08-21T00:25:59;10.10;;;8.03;;
4057;SDS011;2044;48.692;9.020;2023-08-21T00:28:26;12.30;;;8.30;;
4057;SDS011;2044;48.692;9.020;2023-08-21T00:31:01;10.50;;;8.30;;
4057;SDS011;2044;48.692;9.020;2023-08-21T00:33:28;11.40;;;8.07;;
4057;SDS011;2044;48.692;9.020;2023-08-21T00:35:55;11.13;;;8.27;;
4057;SDS011;2044;48.692;9.020;2023-08-21T00:38:22;12.70;;;7.80;;
4057;SDS011;2044;48.692;9.020;2023-08-21T00:40:48;8.70;;;7.37;;
4057;SDS011;2044;48.692;9.020;2023-08-21T00:43:15;9.80;;;7.70;;
4057;SDS011;2044;48.692;9.020;2023-08-21T00:45:42;9.23;;;8.03;;
4057;SDS011;2044;48.692;9.020;2023-08-21T00:48:12;10.33;;;7.60;;
4057;SDS011;2044;48.692;9.020;2023-08-21T00:50:40;10.93;;;8.53;;
4057;SDS011;2044;48.692;9.020;2023-08-21T00:53:07;8.30;;;7.40;;
4057;SDS011;2044;48.692;9.020;2023-08-21T00:55:34;10.80;;;8.50;;
4057;SDS011;2044;48.692;9.020;2023-08-21T00:58:01;8.70;;;7.00;;
4057;SDS011;2044;48.692;9.020;2023-08-21T01:00:29;11.37;;;7.97;;
4057;SDS011;2044;48.692;9.020;2023-08-21T01:02:56;11.93;;;8.27;;
4057;SDS011;2044;48.692;9.020;2023-08-21T01:05:24;11.17;;;7.87;;
4057;SDS011;2044;48.692;9.020;2023-08-21T01:07:52;9.90;;;7.90;;
4057;SDS011;2044;48.692;9.020;2023-08-21T01:10:31;10.37;;;9.03;;
4057;SDS011;2044;48.692;9.020;2023-08-21T01:13:13;11.00;;;8.20;;
4057;SDS011;2044;48.692;9.020;2023-08-21T01:15:48;12.63;;;9.33;;
4057;SDS011;2044;48.692;9.020;2023-08-21T01:18:17;9.93;;;8.33;;
4057;SDS011;2044;48.692;9.020;2023-08-21T01:20:46;10.73;;;7.77;;
4057;SDS011;2044;48.692;9.020;2023-08-21T01:23:27;9.33;;;7.87;;
4057;SDS011;2044;48.692;9.020;2023-08-21T01:25:58;9.97;;;8.10;;
4057;SDS011;2044;48.692;9.020;2023-08-21T01:28:24;10.67;;;8.40;;
4057;SDS011;2044;48.692;9.020;2023-08-21T01:30:53;9.50;;;8.43;;
4057;SDS011;2044;48.692;9.020;2023-08-21T01:33:25;10.43;;;8.47;;
4057;SDS011;2044;48.692;9.020;2023-08-21T01:35:54;12.27;;;8.87;;
4057;SDS011;2044;48.692;9.020;2023-08-21T01:38:22;10.63;;;8.23;;
4057;SDS011;2044;48.692;9.020;2023-08-21T01:40:51;10.53;;;8.37;;
4057;SDS011;2044;48.692;9.020;2023-08-21T01:43:19;11.10;;;8.17;;
4057;SDS011;2044;48.692;9.020;2023-08-21T01:45:46;10.57;;;7.87;;
4057;SDS011;2044;48.692;9.020;2023-08-21T01:48:13;10.40;;;9.17;;
4057;SDS011;2044;48.692;9.020;2023-08-21T01:50:39;9.87;;;8.00;;
4057;SDS011;2044;48.692;9.020;2023-08-21T01:53:06;10.70;;;8.73;;
4057;SDS011;2044;48.692;9.020;2023-08-21T01:55:33;12.17;;;9.23;;
4057;SDS011;2044;48.692;9.020;2023-08-21T01:58:01;12.63;;;9.20;;
4057;SDS011;2044;48.692;9.020;2023-08-21T02:00:28;11.00;;;8.83;;
4057;SDS011;2044;48.692;9.020;2023-08-21T02:02:54;11.80;;;8.93;;
4057;SDS011;2044;48.692;9.020;2023-08-21T02:05:21;10.33;;;8.37;;
4057;SDS011;2044;48.692;9.020;2023-08-21T02:07:48;9.93;;;8.03;;
4057;SDS011;2044;48.692;9.020;2023-08-21T02:10:14;12.77;;;9.13;;
4057;SDS011;2044;48.692;9.020;2023-08-21T02:12:41;10.20;;;7.83;;
4057;SDS011;2044;48.692;9.020;2023-08-21T02:15:09;13.43;;;8.50;;
4057;SDS011;2044;48.692;9.020;2023-08-21T02:17:36;12.07;;;8.43;;
4057;SDS011;2044;48.692;9.020;2023-08-21T02:20:03;10.47;;;7.70;;
4057;SDS011;2044;48.692;9.020;2023-08-21T02:22:31;10.03;;;8.57;;
4057;SDS011;2044;48.692;9.020;2023-08-21T02:24:58;11.73;;;8.70;;
4057;SDS011;2044;48.692;9.020;2023-08-21T02:27:25;10.80;;;8.90;;
4057;SDS011;2044;48.692;9.020;2023-08-21T02:29:51;12.40;;;8.33;;
4057;SDS011;2044;48.692;9.020;2023-08-21T02:32:19;12.70;;;8.80;;
4057;SDS011;2044;48.692;9.020;2023-08-21T02:34:46;16.43;;;9.73;;
4057;SDS011;2044;48.692;9.020;2023-08-21T02:37:13;13.10;;;8.27;;
4057;SDS011;2044;48.692;9.020;2023-08-21T02:39:39;11.60;;;8.87;;
4057;SDS011;2044;48.692;9.020;2023-08-21T02:42:06;12.73;;;9.00;;
4057;SDS011;2044;48.692;9.020;2023-08-21T02:44:33;13.50;;;9.80;;
4057;SDS011;2044;48.692;9.020;2023-08-21T02:47:00;12.17;;;9.10;;
4057;SDS011;2044;48.692;9.020;2023-08-21T02:49:28;12.43;;;9.53;;
4057;SDS011;2044;48.692;9.020;2023-08-21T02:51:55;15.30;;;9.03;;
4057;SDS011;2044;48.692;9.020;2023-08-21T02:54:22;11.40;;;8.73;;
4057;SDS011;2044;48.692;9.020;2023-08-21T02:56:48;13.67;;;9.17;;
4057;SDS011;2044;48.692;9.020;2023-08-21T02:59:15;16.40;;;9.30;;
4057;SDS011;2044;48.692;9.020;2023-08-21T03:01:42;10.70;;;8.90;;
4057;SDS011;2044;48.692;9.020;2023-08-21T03:04:08;13.60;;;9.13;;
4057;SDS011;2044;48.692;9.020;2023-08-21T03:06:36;13.10;;;9.87;;
4057;SDS011;2044;48.692;9.020;2023-08-21T03:09:03;13.60;;;8.97;;
4057;SDS011;2044;48.692;9.020;2023-08-21T03:11:30;14.53;;;9.30;;
4057;SDS011;2044;48.692;9.020;2023-08-21T03:13:56;10.57;;;8.50;;
4057;SDS011;2044;48.692;9.020;2023-08-21T03:16:23;16.67;;;10.60;;
4057;SDS011;2044;48.692;9.020;2023-08-21T03:18:53;12.60;;;9.60;;
4057;SDS011;2044;48.692;9.020;2023-08-21T03:21:21;12.30;;;9.57;;
4057;SDS011;2044;48.692;9.020;2023-08-21T03:23:50;11.17;;;9.00;;
4057;SDS011;2044;48.692;9.020;2023-08-21T03:26:18;14.70;;;9.83;;
4057;SDS011;2044;48.692;9.020;2023-08-21T03:28:44;13.43;;;9.63;;
4057;SDS011;2044;48.692;9.020;2023-08-21T03:31:11;15.83;;;9.63;;
4057;SDS011;2044;48.692;9.020;2023-08-21T03:33:38;16.53;;;9.90;;
4057;SDS011;2044;48.692;9.020;2023-08-21T03:36:05;12.77;;;9.20;;
4057;SDS011;2044;48.692;9.020;2023-08-21T03:38:32;12.03;;;9.83;;
4057;SDS011;2044;48.692;9.020;2023-08-21T03:41:00;13.33;;;9.30;;
4057;SDS011;2044;48.692;9.020;2023-08-21T03:43:27;12.50;;;9.00;;
4057;SDS011;2044;48.692;9.020;2023-08-21T03:45:54;13.67;;;10.20;;
4057;SDS011;2044;48.692;9.020;2023-08-21T03:48:21;11.90;;;9.20;;
4057;SDS011;2044;48.692;9.020;2023-08-21T03:50:48;15.03;;;10.00;;
4057;SDS011;2044;48.692;9.020;2023-08-21T03:53:15;12.40;;;9.57;;
4057;SDS011;2044;48.692;9.020;2023-08-21T03:55:42;12.37;;;9.53;;
4057;SDS011;2044;48.692;9.020;2023-08-21T03:58:10;11.20;;;9.33;;
4057;SDS011;2044;48.692;9.020;2023-08-21T04:00:37;14.10;;;9.70;;
4057;SDS011;2044;48.692;9.020;2023-08-21T04:03:03;13.80;;;9.30;;
4057;SDS011;2044;48.692;9.020;2023-08-21T04:05:30;12.80;;;9.13;;
4057;SDS011;2044;48.692;9.020;2023-08-21T04:07:57;13.80;;;9.40;;
4057;SDS011;2044;48.692;9.020;2023-08-21T04:10:23;11.27;;;8.87;;
4057;SDS011;2044;48.692;9.020;2023-08-21T04:12:50;17.70;;;9.40;;
4057;SDS011;2044;48.692;9.020;2023-08-21T04:15:18;15.00;;;10.37;;
4057;SDS011;2044;48.692;9.020;2023-08-21T04:17:45;12.67;;;9.43;;
4057;SDS011;2044;48.692;9.020;2023-08-21T04:20:12;13.60;;;9.70;;
4057;SDS011;2044;48.692;9.020;2023-08-21T04:22:38;13.53;;;9.43;;
4057;SDS011;2044;48.692;9.020;2023-08-21T04:25:05;13.73;;;9.70;;
4057;SDS011;2044;48.692;9.020;2023-08-21T04:27:32;11.97;;;8.90;;
4057;SDS011;2044;48.692;9.020;2023-08-21T04:29:59;11.83;;;9.20;;
4057;SDS011;2044;48.692;9.020;2023-08-21T04:32:27;15.90;;;9.70;;
4057;SDS011;2044;48.692;9.020;2023-08-21T04:34:54;12.33;;;9.50;;
4057;SDS011;2044;48.692;9.020;2023-08-21T04:37:21;10.97;;;9.30;;
4057;SDS011;2044;48.692;9.020;2023-08-21T04:39:49;13.00;;;9.07;;
4057;SDS011;2044;48.692;9.020;2023-08-21T04:42:16;11.87;;;9.20;;
4057;SDS011;2044;48.692;9.020;2023-08-21T04:44:43;13.20;;;9.50;;
4057;SDS011;2044;48.692;9.020;2023-08-21T04:47:19;16.30;;;9.37;;
4057;SDS011;2044;48.692;9.020;2023-08-21T04:49:48;13.53;;;8.83;;
4057;SDS011;2044;48.692;9.020;2023-08-21T04:52:15;15.00;;;9.93;;
4057;SDS011;2044;48.692;9.020;2023-08-21T04:54:42;13.50;;;10.03;;
4057;SDS011;2044;48.692;9.020;2023-08-21T04:57:09;12.67;;;9.57;;
4057;SDS011;2044;48.692;9.020;2023-08-21T04:59:35;13.73;;;9.90;;
4057;SDS011;2044;48.692;9.020;2023-08-21T05:02:02;12.23;;;9.30;;
4057;SDS011;2044;48.692;9.020;2023-08-21T05:04:29;11.77;;;8.60;;
4057;SDS011;2044;48.692;9.020;2023-08-21T05:06:57;14.00;;;8.77;;
4057;SDS011;2044;48.692;9.020;2023-08-21T05:09:24;11.20;;;7.40;;
4057;SDS011;2044;48.692;9.020;2023-08-21T05:11:51;9.30;;;8.07;;
4057;SDS011;2044;48.692;9.020;2023-08-21T05:14:17;11.97;;;7.50;;
4057;SDS011;2044;48.692;9.020;2023-08-21T05:16:44;8.60;;;7.50;;
4057;SDS011;2044;48.692;9.020;2023-08-21T05:19:12;10.03;;;8.00;;
4057;SDS011;2044;48.692;9.020;2023-08-21T05:21:39;10.33;;;7.60;;
4057;SDS011;2044;48.692;9.020;2023-08-21T05:24:07;7.73;;;6.90;;
4057;SDS011;2044;48.692;9.020;2023-08-21T05:26:35;11.17;;;7.10;;
4057;SDS011;2044;48.692;9.020;2023-08-21T05:29:01;11.87;;;7.70;;
4057;SDS011;2044;48.692;9.020;2023-08-21T05:31:28;11.20;;;7.60;;
4057;SDS011;2044;48.692;9.020;2023-08-21T05:33:55;8.87;;;7.97;;
4057;SDS011;2044;48.692;9.020;2023-08-21T05:36:22;10.70;;;8.30;;
4057;SDS011;2044;48.692;9.020;2023-08-21T05:38:49;8.67;;;7.77;;
4057;SDS011;2044;48.692;9.020;2023-08-21T05:41:17;14.00;;;8.40;;
4057;SDS011;2044;48.692;9.020;2023-08-21T05:43:44;8.83;;;7.50;;
4057;SDS011;2044;48.692;9.020;2023-08-21T05:46:12;11.00;;;8.50;;
4057;SDS011;2044;48.692;9.020;2023-08-21T05:48:39;11.90;;;7.73;;
4057;SDS011;2044;48.692;9.020;2023-08-21T05:51:05;10.00;;;7.47;;
4057;SDS011;2044;48.692;9.020;2023-08-21T05:53:32;10.43;;;7.93;;
4057;SDS011;2044;48.692;9.020;2023-08-21T05:55:59;13.03;;;8.13;;
4057;SDS011;2044;48.692;9.020;2023-08-21T05:58:27;11.73;;;8.50;;
4057;SDS011;2044;48.692;9.020;2023-08-21T06:00:56;8.40;;;7.60;;
4057;SDS011;2044;48.692;9.020;2023-08-21T06:03:23;10.10;;;9.03;;
4057;SDS011;2044;48.692;9.020;2023-08-21T06:05:50;11.87;;;9.23;;
4057;SDS011;2044;48.692;9.020;2023-08-21T06:08:17;10.57;;;9.40;;
4057;SDS011;2044;48.692;9.020;2023-08-21T06:10:44;11.30;;;10.20;;
4057;SDS011;2044;48.692;9.020;2023-08-21T06:13:11;11.47;;;10.37;;
4057;SDS011;2044;48.692;9.020;2023-08-21T06:15:39;12.40;;;11.20;;
4057;SDS011;2044;48.692;9.020;2023-08-21T06:18:09;12.73;;;11.60;;
4057;SDS011;2044;48.692;9.020;2023-08-21T06:20:36;14.90;;;11.87;;
4057;SDS011;2044;48.692;9.020;2023-08-21T06:23:03;14.30;;;12.63;;
4057;SDS011;2044;48.692;9.020;2023-08-21T06:25:29;13.87;;;12.57;;
4057;SDS011;2044;48.692;9.020;2023-08-21T06:27:58;14.20;;;12.87;;
4057;SDS011;2044;48.692;9.020;2023-08-21T06:30:25;15.37;;;13.27;;
4057;SDS011;2044;48.692;9.020;2023-08-21T06:32:53;14.80;;;12.90;;
4057;SDS011;2044;48.692;9.020;2023-08-21T06:35:19;14.73;;;13.47;;
4057;SDS011;2044;48.692;9.020;2023-08-21T06:37:46;16.13;;;14.70;;
4057;SDS011;2044;48.692;9.020;2023-08-21T06:40:13;15.90;;;14.00;;
4057;SDS011;2044;48.692;9.020;2023-08-21T06:42:40;15.10;;;14.00;;
4057;SDS011;2044;48.692;9.020;2023-08-21T06:45:07;15.43;;;14.23;;
4057;SDS011;2044;48.692;9.020;2023-08-21T06:47:34;16.13;;;14.80;;
4057;SDS011;2044;48.692;9.020;2023-08-21T06:50:02;15.13;;;13.90;;
4057;SDS011;2044;48.692;9.020;2023-08-21T06:52:29;15.37;;;14.10;;
4057;SDS011;2044;48.692;9.020;2023-08-21T06:54:56;14.67;;;13.67;;
4057;SDS011;2044;48.692;9.020;2023-08-21T06:57:22;15.50;;;14.10;;
4057;SDS011;2044;48.692;9.020;2023-08-21T06:59:49;14.10;;;13.00;;
4057;SDS011;2044;48.692;9.020;2023-08-21T07:02:16;14.57;;;13.47;;
4057;SDS011;2044;48.692;9.020;2023-08-21T07:04:42;15.90;;;14.07;;
4057;SDS011;2044;48.692;9.020;2023-08-21T07:07:10;14.50;;;13.40;;
4057;SDS011;2044;48.692;9.020;2023-08-21T07:09:37;15.57;;;14.40;;
4057;SDS011;2044;48.692;9.020;2023-08-21T07:12:04;15.00;;;13.53;;
4057;SDS011;2044;48.692;9.020;2023-08-21T07:14:31;17.60;;;14.97;;
4057;SDS011;2044;48.692;9.020;2023-08-21T07:16:58;16.47;;;14.70;;
4057;SDS011;2044;48.692;9.020;2023-08-21T07:19:25;15.03;;;13.90;;
4057;SDS011;2044;48.692;9.020;2023-08-21T07:21:51;15.40;;;14.10;;
4057;SDS011;2044;48.692;9.020;2023-08-21T07:24:19;15.37;;;14.07;;
4057;SDS011;2044;48.692;9.020;2023-08-21T07:26:46;15.63;;;14.30;;
4057;SDS011;2044;48.692;9.020;2023-08-21T07:29:13;14.63;;;13.47;;
4057;SDS011;2044;48.692;9.020;2023-08-21T07:31:40;15.93;;;14.43;;
4057;SDS011;2044;48.692;9.020;2023-08-21T07:34:07;15.17;;;13.60;;
4057;SDS011;2044;48.692;9.020;2023-08-21T07:36:34;15.90;;;14.63;;
4057;SDS011;2044;48.692;9.020;2023-08-21T07:39:00;15.30;;;14.30;;
4057;SDS011;2044;48.692;9.020;2023-08-21T07:41:28;15.10;;;13.77;;
4057;SDS011;2044;48.692;9.020;2023-08-21T07:43:55;16.70;;;15.13;;
4057;SDS011;2044;48.692;9.020;2023-08-21T07:46:22;16.73;;;15.17;;
4057;SDS011;2044;48.692;9.020;2023-08-21T07:48:49;15.37;;;14.07;;
4057;SDS011;2044;48.692;9.020;2023-08-21T07:51:16;15.23;;;14.10;;
4057;SDS011;2044;48.692;9.020;2023-08-21T07:53:42;16.10;;;14.83;;
4057;SDS011;2044;48.692;9.020;2023-08-21T07:56:09;15.43;;;14.13;;
4057;SDS011;2044;48.692;9.020;2023-08-21T07:58:37;15.40;;;14.10;;
4057;SDS011;2044;48.692;9.020;2023-08-21T08:01:04;14.57;;;13.17;;
4057;SDS011;2044;48.692;9.020;2023-08-21T08:03:31;14.10;;;13.10;;
4057;SDS011;2044;48.692;9.020;2023-08-21T08:05:57;14.93;;;13.73;;
4057;SDS011;2044;48.692;9.020;2023-08-21T08:08:24;14.00;;;12.90;;
4057;SDS011;2044;48.692;9.020;2023-08-21T08:10:51;14.23;;;13.27;;
4057;SDS011;2044;48.692;9.020;2023-08-21T08:13:18;14.90;;;13.80;;
4057;SDS011;2044;48.692;9.020;2023-08-21T08:15:46;14.40;;;13.20;;
4057;SDS011;2044;48.692;9.020;2023-08-21T08:18:13;13.67;;;12.73;;
4057;SDS011;2044;48.692;9.020;2023-08-21T08:20:40;15.00;;;14.00;;
4057;SDS011;2044;48.692;9.020;2023-08-21T08:23:07;14.83;;;13.73;;
4057;SDS011;2044;48.692;9.020;2023-08-21T08:25:34;13.67;;;12.87;;
4057;SDS011;2044;48.692;9.020;2023-08-21T08:28:00;14.00;;;13.07;;
4057;SDS011;2044;48.692;9.020;2023-08-21T08:30:27;14.20;;;13.20;;
4057;SDS011;2044;48.692;9.020;2023-08-21T08:32:55;13.50;;;12.70;;
4057;SDS011;2044;48.692;9.020;2023-08-21T08:35:23;13.00;;;12.13;;
4057;SDS011;2044;48.692;9.020;2023-08-21T08:37:50;13.77;;;12.93;;
4057;SDS011;2044;48.692;9.020;2023-08-21T08:40:17;13.30;;;12.43;;
4057;SDS011;2044;48.692;9.020;2023-08-21T08:42:43;13.10;;;12.30;;
4057;SDS011;2044;48.692;9.020;2023-08-21T08:45:12;12.23;;;11.43;;
4057;SDS011;2044;48.692;9.020;2023-08-21T08:47:40;11.47;;;10.77;;
4057;SDS011;2044;48.692;9.020;2023-08-21T08:50:09;11.83;;;11.13;;
4057;SDS011;2044;48.692;9.020;2023-08-21T08:52:37;12.30;;;11.50;;
4057;SDS011;2044;48.692;9.020;2023-08-21T08:55:04;12.83;;;12.03;;
4057;SDS011;2044;48.692;9.020;2023-08-21T08:57:32;13.47;;;12.57;;
4057;SDS011;2044;48.692;9.020;2023-08-21T08:59:59;13.03;;;12.07;;
4057;SDS011;2044;48.692;9.020;2023-08-21T09:02:26;13.37;;;12.57;;
4057;SDS011;2044;48.692;9.020;2023-08-21T09:04:53;13.40;;;12.60;;
4057;SDS011;2044;48.692;9.020;2023-08-21T09:07:21;13.40;;;12.50;;
4057;SDS011;2044;48.692;9.020;2023-08-21T09:09:48;13.10;;;12.20;;
4057;SDS011;2044;48.692;9.020;2023-08-21T09:12:17;12.30;;;11.50;;
4057;SDS011;2044;48.692;9.020;2023-08-21T09:14:45;13.27;;;12.47;;
4057;SDS011;2044;48.692;9.020;2023-08-21T09:17:12;13.40;;;12.40;;
4057;SDS011;2044;48.692;9.020;2023-08-21T09:19:39;12.63;;;11.67;;
4057;SDS011;2044;48.692;9.020;2023-08-21T09:22:10;14.10;;;13.00;;
4057;SDS011;2044;48.692;9.020;2023-08-21T09:24:39;13.30;;;12.40;;
4057;SDS011;2044;48.692;9.020;2023-08-21T09:27:12;13.60;;;12.40;;
4057;SDS011;2044;48.692;9.020;2023-08-21T09:29:41;13.20;;;12.37;;
4057;SDS011;2044;48.692;9.020;2023-08-21T09:32:08;13.13;;;12.07;;
4057;SDS011;2044;48.692;9.020;2023-08-21T09:34:35;13.30;;;12.40;;
4057;SDS011;2044;48.692;9.020;2023-08-21T09:37:04;12.90;;;12.00;;
4057;SDS011;2044;48.692;9.020;2023-08-21T09:39:33;12.37;;;11.47;;
4057;SDS011;2044;48.692;9.020;2023-08-21T09:42:01;11.57;;;10.77;;
4057;SDS011;2044;48.692;9.020;2023-08-21T09:44:35;12.40;;;11.50;;
4057;SDS011;2044;48.692;9.020;2023-08-21T09:47:04;11.90;;;11.10;;
4057;SDS011;2044;48.692;9.020;2023-08-21T09:49:34;13.03;;;12.10;;
4057;SDS011;2044;48.692;9.020;2023-08-21T09:52:01;12.50;;;11.47;;
4057;SDS011;2044;48.692;9.020;2023-08-21T09:54:30;12.70;;;11.73;;
4057;SDS011;2044;48.692;9.020;2023-08-21T09:56:57;12.70;;;11.90;;
4057;SDS011;2044;48.692;9.020;2023-08-21T09:59:28;13.30;;;12.50;;
4057;SDS011;2044;48.692;9.020;2023-08-21T10:01:55;13.33;;;12.33;;
4057;SDS011;2044;48.692;9.020;2023-08-21T10:04:25;14.60;;;13.07;;
4057;SDS011;2044;48.692;9.020;2023-08-21T10:06:53;13.20;;;12.27;;
4057;SDS011;2044;48.692;9.020;2023-08-21T10:09:22;13.23;;;12.30;;
4057;SDS011;2044;48.692;9.020;2023-08-21T10:11:50;13.10;;;11.90;;
4057;SDS011;2044;48.692;9.020;2023-08-21T10:14:20;12.67;;;11.87;;
4057;SDS011;2044;48.692;9.020;2023-08-21T10:16:48;13.40;;;12.50;;
4057;SDS011;2044;48.692;9.020;2023-08-21T10:19:17;12.90;;;12.00;;
4057;SDS011;2044;48.692;9.020;2023-08-21T10:21:46;13.20;;;12.30;;
4057;SDS011;2044;48.692;9.020;2023-08-21T10:24:18;13.40;;;12.50;;
4057;SDS011;2044;48.692;9.020;2023-08-21T10:26:53;13.90;;;12.80;;
4057;SDS011;2044;48.692;9.020;2023-08-21T10:29:21;13.90;;;13.00;;
4057;SDS011;2044;48.692;9.020;2023-08-21T10:31:48;14.03;;;13.00;;
4057;SDS011;2044;48.692;9.020;2023-08-21T10:34:31;13.53;;;12.50;;
4057;SDS011;2044;48.692;9.020;2023-08-21T10:37:02;13.70;;;12.80;;
4057;SDS011;2044;48.692;9.020;2023-08-21T10:39:31;14.40;;;13.40;;
4057;SDS011;2044;48.692;9.020;2023-08-21T10:42:00;14.70;;;13.70;;
4057;SDS011;2044;48.692;9.020;2023-08-21T10:44:36;14.50;;;13.60;;
4057;SDS011;2044;48.692;9.020;2023-08-21T10:47:14;13.33;;;12.23;;
4057;SDS011;2044;48.692;9.020;2023-08-21T10:49:42;14.70;;;13.70;;
4057;SDS011;2044;48.692;9.020;2023-08-21T10:52:10;14.40;;;13.40;;
4057;SDS011;2044;48.692;9.020;2023-08-21T10:54:44;14.40;;;13.43;;
4057;SDS011;2044;48.692;9.020;2023-08-21T10:57:15;14.30;;;13.37;;
4057;SDS011;2044;48.692;9.020;2023-08-21T10:59:53;14.63;;;13.53;;
4057;SDS011;2044;48.692;9.020;2023-08-21T11:02:21;14.20;;;13.30;;
4057;SDS011;2044;48.692;9.020;2023-08-21T11:04:48;12.53;;;11.73;;
4057;SDS011;2044;48.692;9.020;2023-08-21T11:07:15;13.40;;;12.50;;
4057;SDS011;2044;48.692;9.020;2023-08-21T11:09:42;13.70;;;12.63;;
4057;SDS011;2044;48.692;9.020;2023-08-21T11:12:10;13.37;;;12.50;;
4057;SDS011;2044;48.692;9.020;2023-08-21T11:14:38;13.90;;;12.90;;
4057;SDS011;2044;48.692;9.020;2023-08-21T11:17:06;13.43;;;12.53;;
4057;SDS011;2044;48.692;9.020;2023-08-21T11:19:34;13.77;;;12.83;;
4057;SDS011;2044;48.692;9.020;2023-08-21T11:22:02;13.30;;;12.30;;
4057;SDS011;2044;48.692;9.020;2023-08-21T11:24:31;13.70;;;12.80;;
4057;SDS011;2044;48.692;9.020;2023-08-21T11:27:08;12.90;;;12.10;;
4057;SDS011;2044;48.692;9.020;2023-08-21T11:29:37;13.50;;;12.53;;
4057;SDS011;2044;48.692;9.020;2023-08-21T11:32:10;12.77;;;11.80;;
4057;SDS011;2044;48.692;9.020;2023-08-21T11:34:39;12.97;;;12.13;;
4057;SDS011;2044;48.692;9.020;2023-08-21T11:37:07;13.33;;;12.53;;
4057;SDS011;2044;48.692;9.020;2023-08-21T11:42:20;13.47;;;12.47;;
4057;SDS011;2044;48.692;9.020;2023-08-21T11:44:49;13.77;;;12.57;;
4057;SDS011;2044;48.692;9.020;2023-08-21T11:47:19;12.90;;;11.90;;
4057;SDS011;2044;48.692;9.020;2023-08-21T11:49:47;13.43;;;12.40;;
4057;SDS011;2044;48.692;9.020;2023-08-21T11:52:17;13.33;;;12.53;;
4057;SDS011;2044;48.692;9.020;2023-08-21T11:54:47;14.03;;;13.17;;
4057;SDS011;2044;48.692;9.020;2023-08-21T11:57:14;15.43;;;14.00;;
4057;SDS011;2044;48.692;9.020;2023-08-21T11:59:41;15.07;;;13.60;;
4057;SDS011;2044;48.692;9.020;2023-08-21T12:02:13;15.13;;;13.73;;
4057;SDS011;2044;48.692;9.020;2023-08-21T12:04:42;13.97;;;12.60;;
4057;SDS011;2044;48.692;9.020;2023-08-21T12:07:10;13.70;;;12.70;;
4057;SDS011;2044;48.692;9.020;2023-08-21T12:09:38;14.50;;;13.30;;
4057;SDS011;2044;48.692;9.020;2023-08-21T12:12:05;13.33;;;12.30;;
4057;SDS011;2044;48.692;9.020;2023-08-21T12:14:33;12.87;;;12.03;;
4057;SDS011;2044;48.692;9.020;2023-08-21T12:17:04;14.00;;;13.10;;
4057;SDS011;2044;48.692;9.020;2023-08-21T12:19:31;17.70;;;13.80;;
4057;SDS011;2044;48.692;9.020;2023-08-21T12:21:59;13.70;;;12.60;;
4057;SDS011;2044;48.692;9.020;2023-08-21T12:24:25;14.03;;;13.03;;
4057;SDS011;2044;48.692;9.020;2023-08-21T12:26:52;15.60;;;14.50;;
4057;SDS011;2044;48.692;9.020;2023-08-21T12:29:19;15.30;;;14.20;;
4057;SDS011;2044;48.692;9.020;2023-08-21T12:31:45;14.73;;;13.63;;
4057;SDS011;2044;48.692;9.020;2023-08-21T12:34:13;15.37;;;14.20;;
4057;SDS011;2044;48.692;9.020;2023-08-21T12:36:40;13.93;;;13.03;;
4057;SDS011;2044;48.692;9.020;2023-08-21T12:39:08;14.50;;;13.40;;
4057;SDS011;2044;48.692;9.020;2023-08-21T12:41:34;13.87;;;12.90;;
4057;SDS011;2044;48.692;9.020;2023-08-21T12:44:01;14.37;;;13.27;;
4057;SDS011;2044;48.692;9.020;2023-08-21T12:46:28;13.17;;;12.20;;
4057;SDS011;2044;48.692;9.020;2023-08-21T12:48:55;14.83;;;13.83;;
4057;SDS011;2044;48.692;9.020;2023-08-21T12:51:22;14.30;;;13.13;;
4057;SDS011;2044;48.692;9.020;2023-08-21T12:53:49;13.93;;;12.93;;
4057;SDS011;2044;48.692;9.020;2023-08-21T12:56:17;14.53;;;13.17;;
4057;SDS011;2044;48.692;9.020;2023-08-21T12:58:43;15.50;;;14.10;;
4057;SDS011;2044;48.692;9.020;2023-08-21T13:01:10;13.87;;;12.87;;
4057;SDS011;2044;48.692;9.020;2023-08-21T13:03:37;14.00;;;12.93;;
4057;SDS011;2044;48.692;9.020;2023-08-21T13:06:04;13.90;;;13.00;;
4057;SDS011;2044;48.692;9.020;2023-08-21T13:08:31;14.00;;;13.00;;
4057;SDS011;2044;48.692;9.020;2023-08-21T13:10:57;14.60;;;13.50;;
4057;SDS011;2044;48.692;9.020;2023-08-21T13:13:25;14.33;;;13.30;;
4057;SDS011;2044;48.692;9.020;2023-08-21T13:15:52;13.87;;;12.87;;
4057;SDS011;2044;48.692;9.020;2023-08-21T13:18:20;14.17;;;12.83;;
4057;SDS011;2044;48.692;9.020;2023-08-21T13:20:46;12.93;;;12.13;;
4057;SDS011;2044;48.692;9.020;2023-08-21T13:23:13;14.03;;;13.03;;
4057;SDS011;2044;48.692;9.020;2023-08-21T13:25:40;13.83;;;12.50;;
4057;SDS011;2044;48.692;9.020;2023-08-21T13:28:07;13.20;;;12.20;;
4057;SDS011;2044;48.692;9.020;2023-08-21T13:30:35;13.60;;;12.50;;
4057;SDS011;2044;48.692;9.020;2023-08-21T13:33:02;13.03;;;12.23;;
4057;SDS011;2044;48.692;9.020;2023-08-21T13:35:29;12.50;;;11.60;;
4057;SDS011;2044;48.692;9.020;2023-08-21T13:37:56;12.87;;;11.97;;
4057;SDS011;2044;48.692;9.020;2023-08-21T13:40:23;12.70;;;11.90;;
4057;SDS011;2044;48.692;9.020;2023-08-21T13:42:50;13.30;;;12.40;;
4057;SDS011;2044;48.692;9.020;2023-08-21T13:45:17;13.20;;;12.30;;
4057;SDS011;2044;48.692;9.020;2023-08-21T13:47:47;13.50;;;12.50;;
4057;SDS011;2044;48.692;9.020;2023-08-21T13:50:15;12.83;;;11.70;;
4057;SDS011;2044;48.692;9.020;2023-08-21T13:52:42;12.60;;;11.53;;
4057;SDS011;2044;48.692;9.020;2023-08-21T13:55:10;12.80;;;11.90;;
4057;SDS011;2044;48.692;9.020;2023-08-21T13:57:37;12.17;;;11.20;;
4057;SDS011;2044;48.692;9.020;2023-08-21T14:00:04;13.27;;;12.00;;
4057;SDS011;2044;48.692;9.020;2023-08-21T14:02:33;13.40;;;12.40;;
4057;SDS011;2044;48.692;9.020;2023-08-21T14:05:01;12.60;;;11.50;;
4057;SDS011;2044;48.692;9.020;2023-08-21T14:07:29;10.97;;;10.27;;
4057;SDS011;2044;48.692;9.020;2023-08-21T14:09:56;11.60;;;10.70;;
4057;SDS011;2044;48.692;9.020;2023-08-21T14:12:23;10.97;;;10.27;;
4057;SDS011;2044;48.692;9.020;2023-08-21T14:14:50;12.07;;;10.97;;
4057;SDS011;2044;48.692;9.020;2023-08-21T14:17:17;11.03;;;10.03;;
4057;SDS011;2044;48.692;9.020;2023-08-21T14:19:43;12.40;;;11.40;;
4057;SDS011;2044;48.692;9.020;2023-08-21T14:22:11;12.47;;;11.63;;
4057;SDS011;2044;48.692;9.020;2023-08-21T14:24:38;13.30;;;12.00;;
4057;SDS011;2044;48.692;9.020;2023-08-21T14:27:05;12.30;;;11.50;;
4057;SDS011;2044;48.692;9.020;2023-08-21T14:29:32;11.83;;;10.83;;
4057;SDS011;2044;48.692;9.020;2023-08-21T14:31:59;12.60;;;11.77;;
4057;SDS011;2044;48.692;9.020;2023-08-21T14:34:26;11.97;;;11.00;;
4057;SDS011;2044;48.692;9.020;2023-08-21T14:36:52;13.27;;;12.27;;
4057;SDS011;2044;48.692;9.020;2023-08-21T14:39:23;12.07;;;11.27;;
4057;SDS011;2044;48.692;9.020;2023-08-21T14:41:53;11.80;;;10.90;;
4057;SDS011;2044;48.692;9.020;2023-08-21T14:44:20;13.80;;;12.80;;
4057;SDS011;2044;48.692;9.020;2023-08-21T14:46:47;13.70;;;12.70;;
4057;SDS011;2044;48.692;9.020;2023-08-21T14:49:13;14.27;;;12.97;;
4057;SDS011;2044;48.692;9.020;2023-08-21T14:51:40;13.33;;;12.30;;
4057;SDS011;2044;48.692;9.020;2023-08-21T14:54:07;12.37;;;11.47;;
4057;SDS011;2044;48.692;9.020;2023-08-21T14:56:35;12.80;;;11.80;;
4057;SDS011;2044;48.692;9.020;2023-08-21T14:59:02;12.73;;;11.83;;